Flight Track Log - Related Links

Times and Time Zones

All times are in EDT time to prevent confusion due to time zone crossing. See the C-GSCW flight status page for this flight to view local times or setup timezone preferences in your user account.


Time Position Orientation Groundspeed Altitude Reporting Facility
EDT Latitude Longitude Course Direction KTS MPH feet Rate Location/Type
Mon 02:35:35 PM 42.2669 -82.9542 124° Southeast 85 98 900  Level Cleveland Center
Mon 02:36:11 PM 42.2569 -82.9342 124° Southeast 102 117 1,400 742 Climbing Cleveland Center
Mon 02:37:12 PM 42.2472 -82.8972 110° East 106 122 2,100 756 Climbing Cleveland Center
Mon 02:38:26 PM 42.2336 -82.8492 111° Southeast 107 123 3,100 780 Climbing Cleveland Center
Mon 02:39:15 PM 42.2364 -82.8128 84° East 123 142 3,700 716 Climbing Cleveland Center
Mon 02:40:15 PM 42.2475 -82.7739 69° East 124 143 4,400 624 Climbing Cleveland Center
Mon 02:41:20 PM 42.2608 -82.7267 69° East 113 130 5,000 576 Climbing Cleveland Center
Mon 02:42:20 PM 42.2700 -82.6906 71° East 119 137 5,600 550 Climbing Cleveland Center
Mon 02:43:20 PM 42.2853 -82.6461 65° Northeast 119 137 6,100 500 Climbing Cleveland Center
Mon 02:44:20 PM 42.3047 -82.6103 54° Northeast 119 137 6,600 500 Climbing Cleveland Center
Mon 02:45:20 PM 42.3200 -82.5686 64° Northeast 119 137 7,100 250 Climbing Cleveland Center
Mon 02:46:20 PM 42.3356 -82.5214 66° East 119 137 7,100  Level Cleveland Center
Mon 02:47:20 PM 42.3550 -82.4714 62° Northeast 129 148 7,100  Level Cleveland Center
Mon 02:48:20 PM 42.3747 -82.4242 61° Northeast 139 160 7,100 -50 Level Cleveland Center
Mon 02:49:20 PM 42.4003 -82.3769 54° Northeast 144 166 7,000 -50 Descending Cleveland Center
Mon 02:50:20 PM 42.4261 -82.3300 53° Northeast 149 171 7,000 33 Level Cleveland Center
Mon 02:52:20 PM 42.4672 -82.2242 62° Northeast 149 171 7,100 33 Climbing Cleveland Center
Mon 02:53:20 PM 42.4908 -82.1769 56° Northeast 149 171 7,100  Level Cleveland Center
Mon 02:54:20 PM 42.5122 -82.1267 60° Northeast 149 171 7,100  Level Cleveland Center
Mon 02:55:20 PM 42.5381 -82.0739 56° Northeast 154 177 7,100  Level Cleveland Center
Mon 02:56:20 PM 42.5658 -82.0236 53° Northeast 154 177 7,100  Level Cleveland Center
Mon 02:57:20 PM 42.5894 -81.9736 57° Northeast 154 177 7,100 -50 Level Cleveland Center
Mon 02:58:20 PM 42.6169 -81.9233 53° Northeast 159 183 7,000 -50 Descending Cleveland Center
Mon 02:59:20 PM 42.6406 -81.8703 59° Northeast 159 183 7,000  Level Cleveland Center
Mon 03:00:20 PM 42.6703 -81.8256 48° Northeast 164 189 7,000  Level Cleveland Center
Mon 03:01:20 PM 42.6936 -81.7725 59° Northeast 164 189 7,000  Level Cleveland Center
Mon 03:02:20 PM 42.7214 -81.7192 55° Northeast 164 189 7,000  Level Cleveland Center
Mon 03:03:20 PM 42.7489 -81.6717 52° Northeast 172 198 7,000  Level Cleveland Center
Mon 03:04:20 PM 42.7786 -81.6128 55° Northeast 172 198 7,000  Level Cleveland Center
Mon 03:05:20 PM 42.8042 -81.5650 54° Northeast 166 191 7,000  Level Cleveland Center
Mon 03:07:06 PM 42.8333 -81.4500 71° East 170 196 7,000  Level Toronto Center
Mon 03:08:06 PM 42.8667 -81.4000 48° Northeast 170 196 7,000  Level Toronto Center
Mon 03:09:06 PM 42.9000 -81.3667 36° Northeast 170 196 7,000  Level Toronto Center
Mon 03:10:06 PM 42.9167 -81.3167 66° East 170 196 7,000  Level Toronto Center
Mon 03:11:06 PM 42.9500 -81.2500 56° Northeast 170 196 7,000  Level Toronto Center
Mon 03:12:06 PM 42.9667 -81.2000 65° Northeast 170 196 7,000  Level Toronto Center
Mon 03:13:06 PM 43.0000 -81.1667 36° Northeast 170 196 7,000  Level Toronto Center
Mon 03:14:06 PM 43.0167 -81.1000 71° East 170 196 7,000 50 Level Toronto Center
Mon 03:15:06 PM 43.0500 -81.0500 48° Northeast 170 196 7,100  Climbing Toronto Center
Mon 03:16:06 PM 43.0667 -81.0000 65° Northeast 170 196 7,000 -100 Descending Toronto Center
Mon 03:17:06 PM 43.1000 -80.9333 56° Northeast 170 196 6,900  Descending Toronto Center
Mon 03:18:06 PM 43.1333 -80.8833 48° Northeast 170 196 7,000 50 Climbing Toronto Center
Mon 03:19:06 PM 43.1500 -80.8500 56° Northeast 170 196 7,000 50 Level Toronto Center
Mon 03:20:06 PM 43.2000 -80.7833 44° Northeast 170 196 7,100  Climbing Toronto Center
Mon 03:21:06 PM 43.2333 -80.7333 48° Northeast 170 196 7,000 -50 Descending Toronto Center
Mon 03:22:06 PM 43.2667 -80.7167 20° North 170 196 7,000 -250 Level Toronto Center
Mon 03:23:06 PM 43.3167 -80.6667 36° Northeast 180 207 6,500 -450 Descending Toronto Center
Mon 03:24:06 PM 43.3500 -80.6167 47° Northeast 190 219 6,100 -450 Descending Toronto Center
Mon 03:25:06 PM 43.4000 -80.5667 36° Northeast 190 219 5,600 -450 Descending Toronto Center
Mon 03:26:06 PM 43.4333 -80.5500 20° North 190 219 5,200 -350 Descending Toronto Center
Mon 03:27:06 PM 43.4833 -80.5000 36° Northeast 190 219 4,900 -100 Descending Toronto Center
Mon 03:28:06 PM 43.5167 -80.4667 36° Northeast 170 196 5,000 50 Climbing Toronto Center
Mon 03:29:06 PM 43.5500 -80.4333 36° Northeast 160 184 5,000 50 Level Toronto Center
Mon 03:30:06 PM 43.6000 -80.4000 26° Northeast 160 184 5,100 50 Climbing Toronto Center
Mon 03:31:06 PM 43.6333 -80.3667 36° Northeast 160 184 5,100  Level Toronto Center
Mon 03:32:06 PM 43.6667 -80.3167 47° Northeast 170 196 5,100 -50 Level Toronto Center
Mon 03:33:06 PM 43.7000 -80.2833 36° Northeast 170 196 5,000 -50 Descending Toronto Center
Mon 03:34:06 PM 43.7333 -80.2333 47° Northeast 170 196 5,000  Level Toronto Center
Mon 03:35:06 PM 43.7833 -80.2167 14° North 170 196 5,000  Level Toronto Center
Mon 03:36:06 PM 43.8167 -80.1667 47° Northeast 160 184 5,000  Level Toronto Center
Mon 03:37:06 PM 43.8500 -80.1167 47° Northeast 170 196 5,000 50 Level Toronto Center
Mon 03:38:06 PM 43.8833 -80.1000 20° North 160 184 5,100  Climbing Toronto Center
Mon 03:39:06 PM 43.9333 -80.0500 36° Northeast 170 196 5,000  Descending Toronto Center
Mon 03:40:06 PM 43.9667 -80.0333 20° North 170 196 5,100 -150 Climbing Toronto Center
Mon 03:41:06 PM 43.9667 -79.9500 90° East 160 184 4,700 -450 Descending Toronto Center
Mon 03:42:06 PM 43.9667 -79.8833 90° East 180 207 4,200 -350 Descending Toronto Center
Mon 03:43:06 PM 43.9667 -79.8333 90° East 170 196 4,000 -100 Descending Toronto Center
Mon 03:44:06 PM 43.9833 -79.7667 71° East 160 184 4,000 -200 Level Toronto Center
Mon 03:45:06 PM 43.9833 -79.7000 90° East 160 184 3,600 -500 Descending Toronto Center
Mon 03:46:06 PM 43.9833 -79.6333 90° East 170 196 3,000 -250 Descending Toronto Center
Mon 03:47:06 PM 44.0000 -79.5833 65° Northeast 140 161 3,100 50 Climbing Toronto Center
Mon 03:48:06 PM 44.0000 -79.5333 90° East 130 150 3,100 -50 Level Toronto Center
Mon 03:49:06 PM 43.9833 -79.5000 125° Southeast 120 138 3,000 -250 Descending Toronto Center
Mon 03:50:06 PM 43.9667 -79.4667 125° Southeast 110 127 2,600 -400 Descending Toronto Center
Mon 03:51:06 PM 43.9333 -79.4500 160° South 110 127 2,200 -300 Descending Toronto Center
Mon 03:52:06 PM 43.9167 -79.4167 125° Southeast 90 104 2,000 -150 Descending Toronto Center
Mon 03:53:06 PM 43.9000 -79.4000 144° Southeast 100 115 1,900 -250 Descending Toronto Center
Mon 03:54:06 PM 43.8833 -79.3833 144° Southeast 90 104 1,500 -500 Descending Toronto Center
Mon 03:55:06 PM 43.8667 -79.3500 125° Southeast 80 92 900 -600 Descending Toronto Center

Login

Don't have an account? Register now (free) for customized features, flight alerts, and more!